Time;durP1;ratioP1;P1;durP2;ratioP2;P2;SDS_P1;SDS_P2;PMS_P1;PMS_P2;Temp;Humidity;BMP_temperature;BMP_pressure;BME280_temperature;BME280_humidity;BME280_pressure;Samples;Min_cycle;Max_cycle;Signal;HPM_P1;HPM_P2
2021/12/28 00:01:35;;;;;;;68.47;28.77;;;;;;;;;;6156885;23;20205;-72
2021/12/28 00:04:05;;;;;;;61.03;25.73;;;;;;;;;;6156956;23;20483;-71
2021/12/28 00:06:34;;;;;;;65.30;27.43;;;;;;;;;;6157123;23;20240;-71
2021/12/28 00:09:01;;;;;;;69.97;28.60;;;;;;;;;;6155821;23;20731;-70
2021/12/28 00:11:28;;;;;;;78.37;29.23;;;;;;;;;;6157153;23;20211;-70
2021/12/28 00:14:01;;;;;;;72.53;27.90;;;;;;;;;;6157177;23;20185;-70
2021/12/28 00:18:59;;;;;;;77.50;27.63;;;;;;;;;;6157153;23;20189;-70
2021/12/28 00:21:27;;;;;;;75.77;29.77;;;;;;;;;;6156658;23;20568;-71
2021/12/28 00:23:59;;;;;;;65.30;26.20;;;;;;;;;;6155350;23;20621;-70
2021/12/28 00:26:27;;;;;;;74.73;29.97;;;;;;;;;;6156623;23;20353;-71
2021/12/28 00:28:55;;;;;;;65.53;25.40;;;;;;;;;;6156991;23;20186;-71
2021/12/28 00:31:23;;;;;;;67.20;27.73;;;;;;;;;;6155376;23;20181;-71
2021/12/28 00:33:52;;;;;;;64.23;26.30;;;;;;;;;;6155331;23;20181;-71
2021/12/28 00:36:20;;;;;;;71.50;29.90;;;;;;;;;;6155223;23;20651;-72
2021/12/28 00:38:47;;;;;;;64.70;27.00;;;;;;;;;;6156862;23;20186;-70
2021/12/28 00:41:15;;;;;;;68.77;31.77;;;;;;;;;;6156761;23;20192;-71
2021/12/28 00:43:43;;;;;;;58.53;23.77;;;;;;;;;;6156944;23;20188;-70
2021/12/28 00:46:11;;;;;;;72.67;29.60;;;;;;;;;;6156509;23;20596;-71
2021/12/28 00:48:38;;;;;;;68.07;25.93;;;;;;;;;;6156704;23;20188;-70
2021/12/28 00:51:06;;;;;;;61.83;27.93;;;;;;;;;;6156737;23;20311;-70
2021/12/28 00:53:33;;;;;;;57.80;25.37;;;;;;;;;;6156864;23;20188;-71
2021/12/28 00:56:01;;;;;;;65.00;26.10;;;;;;;;;;6156799;23;20261;-70
2021/12/28 00:58:29;;;;;;;64.60;27.00;;;;;;;;;;6156333;23;20188;-71
2021/12/28 01:00:56;;;;;;;71.40;28.83;;;;;;;;;;6156084;23;20640;-70
2021/12/28 01:03:24;;;;;;;53.07;24.10;;;;;;;;;;6156591;23;20216;-71
2021/12/28 01:05:51;;;;;;;62.07;25.00;;;;;;;;;;6156001;23;20223;-72
2021/12/28 01:08:19;;;;;;;69.77;28.90;;;;;;;;;;6156624;23;20181;-71
2021/12/28 01:10:52;;;;;;;62.73;27.70;;;;;;;;;;6156626;23;20212;-71
2021/12/28 01:13:20;;;;;;;58.50;26.23;;;;;;;;;;6156685;23;20169;-70
2021/12/28 01:15:49;;;;;;;71.30;27.43;;;;;;;;;;6154936;23;20205;-69
2021/12/28 01:18:16;;;;;;;54.93;24.53;;;;;;;;;;6154855;23;20181;-75
2021/12/28 01:20:44;;;;;;;68.97;27.80;;;;;;;;;;6156609;23;20186;-74
2021/12/28 01:23:12;;;;;;;57.70;25.23;;;;;;;;;;6155021;23;20213;-75
2021/12/28 01:25:39;;;;;;;63.20;24.67;;;;;;;;;;6156198;23;20228;-75
2021/12/28 01:28:07;;;;;;;60.93;26.27;;;;;;;;;;6155664;23;20212;-72
2021/12/28 01:30:35;;;;;;;60.83;25.10;;;;;;;;;;6154888;23;20240;-74
2021/12/28 01:33:02;;;;;;;64.03;24.70;;;;;;;;;;6156476;23;20181;-71
2021/12/28 01:35:32;;;;;;;71.70;27.40;;;;;;;;;;6156506;23;20192;-71
2021/12/28 01:38:00;;;;;;;65.87;25.97;;;;;;;;;;6156380;23;20185;-73
2021/12/28 01:40:31;;;;;;;60.83;25.77;;;;;;;;;;6155811;23;20181;-70
2021/12/28 01:43:14;;;;;;;59.97;24.53;;;;;;;;;;6164438;23;20176;-71
2021/12/28 01:45:44;;;;;;;57.23;23.80;;;;;;;;;;6165850;23;20263;-71
2021/12/28 01:48:19;;;;;;;61.63;25.83;;;;;;;;;;6166515;23;20245;-72
2021/12/28 01:50:48;;;;;;;53.37;22.67;;;;;;;;;;6156768;23;20228;-70
2021/12/28 01:53:16;;;;;;;66.47;24.90;;;;;;;;;;6154894;23;20216;-70
2021/12/28 01:55:46;;;;;;;65.60;26.63;;;;;;;;;;6156481;23;20251;-70
2021/12/28 01:58:14;;;;;;;59.83;26.73;;;;;;;;;;6166363;23;20186;-70
2021/12/28 02:00:43;;;;;;;64.33;29.00;;;;;;;;;;6156536;23;20613;-72
2021/12/28 02:03:13;;;;;;;69.90;28.83;;;;;;;;;;6156622;23;20266;-71
2021/12/28 02:05:41;;;;;;;70.20;26.73;;;;;;;;;;6155844;23;20672;-71
2021/12/28 02:08:10;;;;;;;59.87;24.67;;;;;;;;;;6156006;23;20208;-71
2021/12/28 02:10:41;;;;;;;51.43;23.83;;;;;;;;;;6154710;23;20181;-71
2021/12/28 02:13:08;;;;;;;56.40;25.60;;;;;;;;;;6154439;23;20245;-71
2021/12/28 02:15:36;;;;;;;56.40;27.57;;;;;;;;;;6156306;23;20193;-71
2021/12/28 02:18:05;;;;;;;69.03;27.40;;;;;;;;;;6156176;23;20181;-71
2021/12/28 02:20:33;;;;;;;67.17;26.90;;;;;;;;;;6156227;23;20182;-71
2021/12/28 02:23:01;;;;;;;62.83;28.27;;;;;;;;;;6155837;23;20182;-70
2021/12/28 02:25:28;;;;;;;60.50;26.57;;;;;;;;;;6155980;23;20582;-70
2021/12/28 02:27:55;;;;;;;61.20;26.07;;;;;;;;;;6155568;23;20232;-70
2021/12/28 02:30:23;;;;;;;73.13;28.07;;;;;;;;;;6156002;23;20188;-71
2021/12/28 02:32:50;;;;;;;62.53;27.57;;;;;;;;;;6155727;23;20676;-70
2021/12/28 02:35:21;;;;;;;61.40;26.43;;;;;;;;;;6155999;23;20185;-70
2021/12/28 02:37:50;;;;;;;43.60;20.13;;;;;;;;;;6164354;23;20590;-71
2021/12/28 02:40:19;;;;;;;57.77;23.07;;;;;;;;;;6155786;23;20208;-70
2021/12/28 02:42:48;;;;;;;62.23;27.90;;;;;;;;;;6165606;23;20170;-71
2021/12/28 02:45:22;;;;;;;66.70;27.17;;;;;;;;;;6155790;23;20201;-70
2021/12/28 02:47:49;;;;;;;59.77;24.47;;;;;;;;;;6165663;23;20216;-70
2021/12/28 02:50:19;;;;;;;62.57;26.60;;;;;;;;;;6155927;23;20252;-70
2021/12/28 02:52:46;;;;;;;55.03;24.90;;;;;;;;;;6155794;23;20181;-70
2021/12/28 02:55:16;;;;;;;60.93;26.90;;;;;;;;;;6156046;23;20231;-71
2021/12/28 02:57:53;;;;;;;68.80;26.27;;;;;;;;;;6156013;23;20170;-70
2021/12/28 03:00:38;;;;;;;68.70;28.13;;;;;;;;;;6165526;23;20624;-70
2021/12/28 03:03:17;;;;;;;62.17;27.13;;;;;;;;;;6156062;23;20173;-72
2021/12/28 03:05:46;;;;;;;61.10;27.80;;;;;;;;;;6165198;23;20219;-75
2021/12/28 03:08:15;;;;;;;56.93;26.07;;;;;;;;;;6153324;23;20192;-71
2021/12/28 03:10:44;;;;;;;64.27;27.93;;;;;;;;;;6155699;23;20182;-78
2021/12/28 03:13:38;;;;;;;53.27;23.47;;;;;;;;;;6155842;23;20188;-73
2021/12/28 03:16:07;;;;;;;65.67;27.87;;;;;;;;;;6153043;23;20196;-74
2021/12/28 03:18:34;;;;;;;62.57;27.07;;;;;;;;;;6155390;23;20648;-74
2021/12/28 03:21:03;;;;;;;53.87;24.33;;;;;;;;;;6155679;23;20209;-71
2021/12/28 03:23:31;;;;;;;61.97;26.93;;;;;;;;;;6156154;23;20490;-72
2021/12/28 03:25:58;;;;;;;62.47;27.00;;;;;;;;;;6157322;23;20202;-71
2021/12/28 03:28:34;;;;;;;48.57;22.40;;;;;;;;;;6157855;23;20248;-71
2021/12/28 03:31:04;;;;;;;64.70;24.93;;;;;;;;;;6167133;23;20195;-71
2021/12/28 03:33:33;;;;;;;56.43;25.37;;;;;;;;;;6155906;23;20496;-71
2021/12/28 03:36:01;;;;;;;60.80;23.87;;;;;;;;;;6156002;23;20181;-76
2021/12/28 03:38:28;;;;;;;57.77;25.90;;;;;;;;;;6157502;23;20188;-77
2021/12/28 03:40:56;;;;;;;60.43;25.27;;;;;;;;;;6157448;23;20181;-77
2021/12/28 03:43:23;;;;;;;58.00;23.77;;;;;;;;;;6157424;23;20182;-75
2021/12/28 03:45:51;;;;;;;63.57;27.00;;;;;;;;;;6157012;23;20688;-75
2021/12/28 03:48:19;;;;;;;66.77;26.87;;;;;;;;;;6157091;23;20186;-76
2021/12/28 03:50:46;;;;;;;58.10;24.77;;;;;;;;;;6156889;23;20185;-72
2021/12/28 03:53:14;;;;;;;60.33;26.50;;;;;;;;;;6157029;23;20181;-72
2021/12/28 03:55:41;;;;;;;59.97;26.17;;;;;;;;;;6156941;23;20205;-70
2021/12/28 03:58:08;;;;;;;60.10;24.93;;;;;;;;;;6157201;23;20478;-71
2021/12/28 04:00:39;;;;;;;60.07;26.93;;;;;;;;;;6155337;23;20228;-71
2021/12/28 04:03:08;;;;;;;57.77;23.87;;;;;;;;;;6155464;23;20170;-70
2021/12/28 04:05:36;;;;;;;64.70;27.80;;;;;;;;;;6156571;23;20193;-76
2021/12/28 04:08:04;;;;;;;53.87;24.13;;;;;;;;;;6156840;23;20181;-75
2021/12/28 04:10:38;;;;;;;51.03;25.30;;;;;;;;;;6156787;23;20260;-77
2021/12/28 04:13:05;;;;;;;58.23;27.90;;;;;;;;;;6156957;23;20201;-76
2021/12/28 04:15:32;;;;;;;59.57;24.03;;;;;;;;;;6156563;23;20212;-77
2021/12/28 04:18:00;;;;;;;57.77;25.27;;;;;;;;;;6156815;23;20240;-78
2021/12/28 04:20:27;;;;;;;60.30;25.43;;;;;;;;;;6156743;23;20181;-70
2021/12/28 04:22:54;;;;;;;68.07;27.53;;;;;;;;;;6155205;23;20208;-71
2021/12/28 04:25:21;;;;;;;49.30;24.40;;;;;;;;;;6156787;23;20182;-69
2021/12/28 04:27:49;;;;;;;52.90;25.87;;;;;;;;;;6156244;23;20198;-70
2021/12/28 04:30:16;;;;;;;66.10;26.10;;;;;;;;;;6156619;23;20185;-70
2021/12/28 04:32:43;;;;;;;60.30;26.40;;;;;;;;;;6156585;23;20181;-69
2021/12/28 04:35:12;;;;;;;60.90;27.73;;;;;;;;;;6156067;23;20182;-70
2021/12/28 04:37:40;;;;;;;57.47;25.97;;;;;;;;;;6156610;23;20193;-70
2021/12/28 04:40:09;;;;;;;64.70;27.93;;;;;;;;;;6156509;23;20229;-69
2021/12/28 04:42:38;;;;;;;64.17;28.50;;;;;;;;;;6154848;23;20558;-71
2021/12/28 04:45:08;;;;;;;56.07;24.13;;;;;;;;;;6154695;23;20653;-71
2021/12/28 04:47:36;;;;;;;58.23;26.77;;;;;;;;;;6156282;23;20233;-70
2021/12/28 04:50:05;;;;;;;54.30;25.70;;;;;;;;;;6156073;23;20374;-69
2021/12/28 04:52:36;;;;;;;62.27;30.57;;;;;;;;;;6156200;23;20273;-70
2021/12/28 04:55:11;;;;;;;66.67;27.57;;;;;;;;;;6156404;23;20174;-70
2021/12/28 04:57:38;;;;;;;58.93;28.07;;;;;;;;;;6156419;23;20180;-70
2021/12/28 05:00:09;;;;;;;60.77;27.40;;;;;;;;;;6156417;23;20184;-78
2021/12/28 05:02:36;;;;;;;58.97;26.80;;;;;;;;;;6165946;23;20170;-76
2021/12/28 05:05:04;;;;;;;56.37;26.37;;;;;;;;;;6152426;23;20614;-73
2021/12/28 05:07:31;;;;;;;54.33;24.97;;;;;;;;;;6153098;23;20233;-72
2021/12/28 05:09:59;;;;;;;52.07;23.83;;;;;;;;;;6153841;23;20181;-71
2021/12/28 05:12:27;;;;;;;50.33;25.27;;;;;;;;;;6153521;23;20575;-70
2021/12/28 05:14:57;;;;;;;59.97;26.63;;;;;;;;;;6155535;23;20509;-71
2021/12/28 05:17:24;;;;;;;56.13;23.70;;;;;;;;;;6155614;23;20185;-71
2021/12/28 05:19:51;;;;;;;55.20;23.47;;;;;;;;;;6154484;23;20657;-69
2021/12/28 05:22:19;;;;;;;54.63;25.27;;;;;;;;;;6155556;23;20188;-71
2021/12/28 05:24:46;;;;;;;63.60;28.67;;;;;;;;;;6155550;23;20847;-72
2021/12/28 05:27:14;;;;;;;56.17;26.30;;;;;;;;;;6153582;23;20281;-71
2021/12/28 05:29:42;;;;;;;53.50;23.37;;;;;;;;;;6154055;23;20192;-72
2021/12/28 05:32:09;;;;;;;52.33;23.27;;;;;;;;;;6155688;23;20188;-69
2021/12/28 05:34:36;;;;;;;58.97;25.40;;;;;;;;;;6104555;23;20629;-71
2021/12/28 05:37:04;;;;;;;60.90;26.57;;;;;;;;;;6153775;23;20185;-72
2021/12/28 05:39:32;;;;;;;60.63;25.30;;;;;;;;;;6153586;23;20558;-78
2021/12/28 05:41:59;;;;;;;58.87;25.33;;;;;;;;;;6155479;23;20201;-72
2021/12/28 05:44:26;;;;;;;65.67;28.37;;;;;;;;;;6153050;23;20263;-72
2021/12/28 05:46:54;;;;;;;66.17;27.63;;;;;;;;;;6153753;23;20280;-70
2021/12/28 05:49:25;;;;;;;58.17;24.13;;;;;;;;;;6154186;23;20208;-71
2021/12/28 05:51:53;;;;;;;52.90;24.43;;;;;;;;;;6154981;23;20170;-72
2021/12/28 05:54:20;;;;;;;49.20;24.00;;;;;;;;;;6155019;23;20189;-72
2021/12/28 05:56:47;;;;;;;52.50;24.77;;;;;;;;;;6153068;23;20594;-72
2021/12/28 05:59:14;;;;;;;50.30;23.17;;;;;;;;;;6155146;23;20185;-70
2021/12/28 06:01:43;;;;;;;56.60;24.53;;;;;;;;;;6154834;23;20181;-70
2021/12/28 06:04:11;;;;;;;55.90;24.23;;;;;;;;;;6128893;23;20184;-70
2021/12/28 06:06:39;;;;;;;49.10;23.30;;;;;;;;;;6154349;23;20641;-70
2021/12/28 06:09:06;;;;;;;51.63;24.90;;;;;;;;;;6154789;23;20598;-70
2021/12/28 06:11:33;;;;;;;46.63;21.37;;;;;;;;;;6153227;23;20178;-69
2021/12/28 06:14:01;;;;;;;47.97;23.13;;;;;;;;;;6154820;23;20182;-71
2021/12/28 06:16:34;;;;;;;53.57;25.47;;;;;;;;;;6153715;23;20176;-71
2021/12/28 06:19:06;;;;;;;54.27;22.90;;;;;;;;;;6152799;23;20220;-71
2021/12/28 06:21:34;;;;;;;52.97;25.27;;;;;;;;;;6164603;23;20166;-72
2021/12/28 06:24:04;;;;;;;54.50;23.47;;;;;;;;;;6155061;23;20181;-70
2021/12/28 06:26:32;;;;;;;78.43;28.17;;;;;;;;;;6153103;23;20213;-73
2021/12/28 06:29:01;;;;;;;54.70;23.60;;;;;;;;;;6154715;23;20244;-69
2021/12/28 06:31:28;;;;;;;64.20;26.00;;;;;;;;;;6154717;23;20477;-68
2021/12/28 06:33:58;;;;;;;47.93;22.80;;;;;;;;;;6154094;23;20212;-69
2021/12/28 06:36:26;;;;;;;51.47;23.97;;;;;;;;;;6152906;23;20181;-69
2021/12/28 06:38:53;;;;;;;59.67;25.00;;;;;;;;;;6154743;23;20181;-68
2021/12/28 06:41:21;;;;;;;53.17;21.63;;;;;;;;;;6152949;23;20188;-68
2021/12/28 06:43:48;;;;;;;51.30;23.10;;;;;;;;;;6154812;23;20264;-68
2021/12/28 06:46:16;;;;;;;50.27;22.77;;;;;;;;;;6154326;23;20197;-68
2021/12/28 06:48:43;;;;;;;48.10;24.57;;;;;;;;;;6154094;23;20189;-71
2021/12/28 06:51:11;;;;;;;59.40;26.60;;;;;;;;;;6153722;23;20209;-69
2021/12/28 06:53:40;;;;;;;165.13;67.47;;;;;;;;;;6155159;23;20213;-73
2021/12/28 06:56:08;;;;;;;220.37;87.03;;;;;;;;;;6154962;23;20205;-71
2021/12/28 06:58:35;;;;;;;453.70;185.73;;;;;;;;;;6155998;23;20215;-70
2021/12/28 07:01:03;;;;;;;313.40;119.87;;;;;;;;;;6155433;23;20256;-71
2021/12/28 07:03:31;;;;;;;553.17;226.67;;;;;;;;;;6156088;23;20248;-71
2021/12/28 07:05:59;;;;;;;495.37;223.37;;;;;;;;;;6155811;23;20264;-71
2021/12/28 07:08:26;;;;;;;161.53;76.37;;;;;;;;;;6157209;23;20201;-70
2021/12/28 07:10:54;;;;;;;96.70;37.83;;;;;;;;;;6156758;23;20555;-70
2021/12/28 07:13:21;;;;;;;82.13;31.37;;;;;;;;;;6157070;23;20181;-72
2021/12/28 07:15:53;;;;;;;83.57;31.00;;;;;;;;;;6155765;23;20177;-70
2021/12/28 07:18:21;;;;;;;78.20;29.80;;;;;;;;;;6156102;23;20621;-70
2021/12/28 07:20:48;;;;;;;74.27;28.93;;;;;;;;;;6154537;23;20276;-69
2021/12/28 07:23:16;;;;;;;57.43;26.37;;;;;;;;;;6155348;23;20487;-71
2021/12/28 07:25:44;;;;;;;49.07;21.80;;;;;;;;;;6155676;23;20189;-70
2021/12/28 07:28:14;;;;;;;53.37;26.87;;;;;;;;;;6155368;23;20675;-66
2021/12/28 07:30:45;;;;;;;145.10;79.77;;;;;;;;;;6166364;23;20545;-68
2021/12/28 07:33:12;;;;;;;161.10;72.27;;;;;;;;;;6156180;23;20185;-68
2021/12/28 07:35:39;;;;;;;227.50;101.93;;;;;;;;;;6155923;23;20181;-68
2021/12/28 07:38:07;;;;;;;391.67;152.27;;;;;;;;;;6155208;23;20185;-68
2021/12/28 07:40:34;;;;;;;351.63;127.73;;;;;;;;;;6156662;23;20184;-69
2021/12/28 07:43:01;;;;;;;241.43;81.60;;;;;;;;;;6156749;23;20185;-68
2021/12/28 07:45:29;;;;;;;338.00;111.17;;;;;;;;;;6153850;23;20185;-71
2021/12/28 07:47:56;;;;;;;391.67;123.37;;;;;;;;;;6146105;23;20205;-76
2021/12/28 07:50:24;;;;;;;461.97;141.97;;;;;;;;;;6155442;23;20207;-70
2021/12/28 07:52:52;;;;;;;307.97;94.67;;;;;;;;;;6155349;23;20185;-69
2021/12/28 07:55:19;;;;;;;305.00;92.53;;;;;;;;;;6154159;23;20197;-71
2021/12/28 07:57:46;;;;;;;460.43;128.47;;;;;;;;;;6154119;23;20553;-73
2021/12/28 08:00:16;;;;;;;402.77;132.63;;;;;;;;;;6153169;23;20540;-70
2021/12/28 08:02:45;;;;;;;301.03;98.27;;;;;;;;;;6154131;23;20204;-72
2021/12/28 08:05:17;;;;;;;66.47;31.07;;;;;;;;;;6155660;23;20185;-71
2021/12/28 08:07:50;;;;;;;95.77;37.07;;;;;;;;;;6155553;23;20197;-69
2021/12/28 08:10:18;;;;;;;289.23;78.03;;;;;;;;;;6154814;23;20193;-67
2021/12/28 08:12:47;;;;;;;156.30;48.50;;;;;;;;;;6155017;23;20260;-68
2021/12/28 08:15:14;;;;;;;114.23;40.17;;;;;;;;;;6155434;23;20181;-69
2021/12/28 08:17:41;;;;;;;165.80;55.00;;;;;;;;;;6155064;23;20268;-71
2021/12/28 08:20:12;;;;;;;244.67;78.37;;;;;;;;;;6153860;23;20212;-69
2021/12/28 08:22:45;;;;;;;231.67;83.53;;;;;;;;;;6155602;23;20488;-70
2021/12/28 08:25:15;;;;;;;178.33;59.20;;;;;;;;;;6156032;23;20182;-67
2021/12/28 08:27:43;;;;;;;63.87;28.83;;;;;;;;;;6155962;23;20213;-70
2021/12/28 08:30:12;;;;;;;82.17;38.00;;;;;;;;;;6155844;23;20182;-70
2021/12/28 08:32:40;;;;;;;77.03;35.73;;;;;;;;;;6153852;23;20201;-71
2021/12/28 08:35:09;;;;;;;58.97;26.20;;;;;;;;;;6156311;23;20692;-72
2021/12/28 08:37:37;;;;;;;55.70;23.77;;;;;;;;;;6153589;23;20208;-73
2021/12/28 08:40:07;;;;;;;53.83;25.03;;;;;;;;;;6155158;23;20243;-71
2021/12/28 08:42:34;;;;;;;45.97;20.43;;;;;;;;;;6154706;23;20220;-71
2021/12/28 08:45:04;;;;;;;39.77;19.33;;;;;;;;;;6154435;23;20181;-69
2021/12/28 08:47:31;;;;;;;51.93;25.17;;;;;;;;;;6155148;23;20280;-71
2021/12/28 08:49:59;;;;;;;64.43;28.73;;;;;;;;;;6156054;23;20208;-72
2021/12/28 08:52:27;;;;;;;74.33;31.27;;;;;;;;;;6155812;23;20223;-72
2021/12/28 08:54:54;;;;;;;89.90;34.50;;;;;;;;;;6156289;23;20189;-69
2021/12/28 08:57:22;;;;;;;48.13;22.73;;;;;;;;;;6155017;23;20476;-66
2021/12/28 08:59:49;;;;;;;47.20;21.63;;;;;;;;;;6154747;23;20196;-70
2021/12/28 09:02:17;;;;;;;54.37;23.03;;;;;;;;;;6156492;23;20182;-67
2021/12/28 09:04:46;;;;;;;62.90;26.97;;;;;;;;;;6155094;23;20268;-75
2021/12/28 09:07:14;;;;;;;44.07;20.77;;;;;;;;;;6155248;23;20217;-70
2021/12/28 09:09:42;;;;;;;43.40;19.53;;;;;;;;;;6152880;23;20248;-68
2021/12/28 09:12:11;;;;;;;40.07;18.20;;;;;;;;;;6155728;23;20185;-71
2021/12/28 09:14:40;;;;;;;36.17;17.97;;;;;;;;;;6165050;23;20169;-74
2021/12/28 09:17:08;;;;;;;39.90;17.73;;;;;;;;;;6154750;23;20181;-72
2021/12/28 09:19:36;;;;;;;60.97;24.83;;;;;;;;;;6152452;23;20684;-78
2021/12/28 09:22:04;;;;;;;56.33;22.53;;;;;;;;;;6154288;23;20186;-69
2021/12/28 09:24:32;;;;;;;55.83;21.30;;;;;;;;;;6128780;23;20181;-72
2021/12/28 09:27:10;;;;;;;44.77;20.90;;;;;;;;;;6158165;23;20213;-69
2021/12/28 09:29:42;;;;;;;38.80;18.00;;;;;;;;;;6153124;23;20181;-70
2021/12/28 09:32:17;;;;;;;48.53;21.33;;;;;;;;;;6152908;23;20199;-67
2021/12/28 09:34:46;;;;;;;38.27;17.40;;;;;;;;;;6155063;23;20192;-67
2021/12/28 09:37:14;;;;;;;54.77;21.60;;;;;;;;;;6152671;23;20652;-67
2021/12/28 09:39:42;;;;;;;43.07;17.50;;;;;;;;;;6154566;23;20181;-72
2021/12/28 09:42:10;;;;;;;44.37;18.87;;;;;;;;;;6154381;23;20272;-68
2021/12/28 09:44:43;;;;;;;30.23;15.90;;;;;;;;;;6163193;23;20174;-67
2021/12/28 09:47:10;;;;;;;34.80;16.03;;;;;;;;;;6154332;23;20201;-73
2021/12/28 09:49:37;;;;;;;35.60;17.40;;;;;;;;;;6152443;23;20256;-70
2021/12/28 09:52:05;;;;;;;36.97;16.47;;;;;;;;;;6150743;23;20472;-70
2021/12/28 09:54:33;;;;;;;44.27;20.47;;;;;;;;;;6155407;23;20181;-70
2021/12/28 09:57:01;;;;;;;35.47;17.87;;;;;;;;;;6155487;23;20236;-69
2021/12/28 09:59:29;;;;;;;40.03;17.97;;;;;;;;;;6153968;23;20616;-68
2021/12/28 10:01:59;;;;;;;38.63;16.77;;;;;;;;;;6155178;23;20182;-70
2021/12/28 10:04:27;;;;;;;57.37;22.47;;;;;;;;;;6164514;23;20489;-70
2021/12/28 10:07:19;;;;;;;73.90;25.97;;;;;;;;;;6154433;23;20182;-70
2021/12/28 10:09:48;;;;;;;64.70;22.67;;;;;;;;;;6154426;23;20542;-70
2021/12/28 10:12:30;;;;;;;82.83;25.80;;;;;;;;;;6155569;23;20189;-71
2021/12/28 10:15:02;;;;;;;65.23;22.83;;;;;;;;;;6154887;23;20632;-70
2021/12/28 10:17:31;;;;;;;49.23;19.23;;;;;;;;;;6155542;23;20220;-71
2021/12/28 10:20:00;;;;;;;77.23;28.17;;;;;;;;;;6153135;23;20537;-70
2021/12/28 10:22:53;;;;;;;44.40;18.70;;;;;;;;;;6155672;23;20269;-70
2021/12/28 10:25:23;;;;;;;41.93;19.03;;;;;;;;;;6155270;23;20188;-69
2021/12/28 10:27:53;;;;;;;52.50;24.80;;;;;;;;;;6154952;23;20205;-69
2021/12/28 10:30:24;;;;;;;270.23;101.50;;;;;;;;;;6155623;23;20181;-67
2021/12/28 10:32:54;;;;;;;164.03;66.37;;;;;;;;;;6155323;23;20173;-72
2021/12/28 10:35:33;;;;;;;244.60;101.30;;;;;;;;;;6153794;23;20269;-70
2021/12/28 10:38:04;;;;;;;187.10;76.27;;;;;;;;;;6165102;23;20173;-68
2021/12/28 10:40:37;;;;;;;144.03;52.13;;;;;;;;;;6155509;23;20170;-65
2021/12/28 10:43:19;;;;;;;81.70;30.90;;;;;;;;;;6155617;23;20169;-66
2021/12/28 10:45:48;;;;;;;199.07;60.90;;;;;;;;;;6155833;23;20537;-68
2021/12/28 10:48:26;;;;;;;82.43;31.53;;;;;;;;;;6154787;23;20209;-70
2021/12/28 10:51:01;;;;;;;165.57;58.70;;;;;;;;;;6162400;23;20177;-69
2021/12/28 10:53:39;;;;;;;152.80;55.10;;;;;;;;;;6163855;23;20705;-69
2021/12/28 10:56:08;;;;;;;122.30;42.53;;;;;;;;;;6154299;23;20169;-70
2021/12/28 10:58:45;;;;;;;109.37;38.30;;;;;;;;;;6154014;23;20254;-67
2021/12/28 11:01:18;;;;;;;130.57;44.20;;;;;;;;;;6154317;23;20219;-71
2021/12/28 11:04:00;;;;;;;64.10;25.93;;;;;;;;;;6154483;23;20170;-69
2021/12/28 11:06:30;;;;;;;46.93;20.80;;;;;;;;;;6151630;23;20174;-69
2021/12/28 11:09:07;;;;;;;64.30;25.87;;;;;;;;;;6163844;23;20194;-66
2021/12/28 11:11:35;;;;;;;52.63;22.13;;;;;;;;;;6153761;23;20169;-66
2021/12/28 11:14:09;;;;;;;129.17;44.97;;;;;;;;;;6153218;23;20208;-69
2021/12/28 11:17:02;;;;;;;148.67;39.13;;;;;;;;;;6152603;23;20530;-66
2021/12/28 11:19:33;;;;;;;38.33;19.37;;;;;;;;;;6152380;23;20174;-70
2021/12/28 11:22:03;;;;;;;37.70;17.60;;;;;;;;;;6153944;23;20173;-71
2021/12/28 11:24:34;;;;;;;47.03;23.27;;;;;;;;;;6153629;23;20216;-69
2021/12/28 11:27:03;;;;;;;59.37;23.60;;;;;;;;;;6153664;23;20205;-64
2021/12/28 11:29:51;;;;;;;41.20;19.20;;;;;;;;;;6153847;23;20557;-69
2021/12/28 11:32:20;;;;;;;40.83;17.80;;;;;;;;;;6153998;23;20193;-67
2021/12/28 11:34:48;;;;;;;42.13;17.60;;;;;;;;;;6152501;23;20204;-70
2021/12/28 11:37:22;;;;;;;36.20;16.80;;;;;;;;;;6154455;23;20268;-70
2021/12/28 11:39:56;;;;;;;40.07;18.70;;;;;;;;;;6153948;23;20170;-66
2021/12/28 11:42:23;;;;;;;44.53;18.17;;;;;;;;;;6154047;23;20176;-66
2021/12/28 11:44:52;;;;;;;36.70;20.00;;;;;;;;;;6155629;23;20629;-69
2021/12/28 11:47:20;;;;;;;108.33;33.17;;;;;;;;;;6155978;23;20182;-66
2021/12/28 11:49:48;;;;;;;36.03;19.47;;;;;;;;;;6153021;23;20182;-69
2021/12/28 11:52:18;;;;;;;39.80;18.50;;;;;;;;;;6155473;23;20205;-72
2021/12/28 11:54:48;;;;;;;43.07;21.20;;;;;;;;;;6154131;23;20181;-65
2021/12/28 11:57:29;;;;;;;64.47;24.97;;;;;;;;;;6155880;23;20166;-66
2021/12/28 12:00:04;;;;;;;48.33;21.00;;;;;;;;;;6154440;23;20193;-66
2021/12/28 12:02:48;;;;;;;35.30;14.87;;;;;;;;;;6155070;23;20174;-66
2021/12/28 12:05:17;;;;;;;31.30;15.47;;;;;;;;;;6154225;23;20491;-67
2021/12/28 12:07:46;;;;;;;34.37;16.80;;;;;;;;;;6155148;23;20209;-69
2021/12/28 12:10:17;;;;;;;30.43;15.37;;;;;;;;;;6154307;23;20188;-66
2021/12/28 12:12:53;;;;;;;39.37;18.40;;;;;;;;;;6154131;23;20177;-66
2021/12/28 12:15:25;;;;;;;103.10;32.57;;;;;;;;;;6153851;23;20181;-70
2021/12/28 12:18:00;;;;;;;67.73;24.30;;;;;;;;;;6153841;23;20177;-72
2021/12/28 12:20:33;;;;;;;29.80;15.13;;;;;;;;;;6150330;23;20606;-72
2021/12/28 12:23:12;;;;;;;31.00;15.63;;;;;;;;;;6150761;23;20200;-73
2021/12/28 12:25:50;;;;;;;35.13;16.13;;;;;;;;;;6155049;23;20236;-67
2021/12/28 12:28:30;;;;;;;40.50;16.83;;;;;;;;;;6154058;23;20253;-68
2021/12/28 12:31:00;;;;;;;36.87;15.57;;;;;;;;;;6162321;23;20641;-69
2021/12/28 12:33:40;;;;;;;31.63;14.20;;;;;;;;;;6163189;23;20173;-65
2021/12/28 12:36:11;;;;;;;34.53;15.30;;;;;;;;;;6154327;23;20248;-66
2021/12/28 12:38:39;;;;;;;30.17;14.27;;;;;;;;;;6095774;23;20623;-70
2021/12/28 12:41:19;;;;;;;29.93;14.03;;;;;;;;;;6152823;23;20189;-67
2021/12/28 12:43:52;;;;;;;39.07;17.17;;;;;;;;;;6165061;23;20173;-69
2021/12/28 12:46:37;;;;;;;59.57;23.57;;;;;;;;;;6155428;23;20240;-72
2021/12/28 12:49:12;;;;;;;34.27;17.37;;;;;;;;;;6162358;23;20248;-70
2021/12/28 12:51:49;;;;;;;33.17;16.57;;;;;;;;;;6163942;23;20572;-70
2021/12/28 12:54:28;;;;;;;29.57;16.03;;;;;;;;;;6164964;23;20237;-74
2021/12/28 12:56:55;;;;;;;43.10;17.77;;;;;;;;;;6156302;23;20169;-72
2021/12/28 12:59:37;;;;;;;36.27;17.37;;;;;;;;;;6154748;23;20185;-70
2021/12/28 13:02:08;;;;;;;30.13;14.60;;;;;;;;;;6165156;23;20169;-69
2021/12/28 13:04:47;;;;;;;33.73;14.67;;;;;;;;;;6162515;23;20216;-68
2021/12/28 13:07:19;;;;;;;30.67;13.87;;;;;;;;;;6154716;23;20170;-70
2021/12/28 13:10:09;;;;;;;28.23;14.03;;;;;;;;;;6154724;23;20202;-71
2021/12/28 13:12:40;;;;;;;31.67;15.27;;;;;;;;;;6143953;23;20181;-70
2021/12/28 13:15:10;;;;;;;37.57;17.10;;;;;;;;;;6153373;23;20182;-70
2021/12/28 13:17:45;;;;;;;35.10;16.30;;;;;;;;;;6154514;23;20515;-68
2021/12/28 13:20:17;;;;;;;33.70;15.47;;;;;;;;;;6154833;23;20185;-69
2021/12/28 13:22:57;;;;;;;33.83;16.33;;;;;;;;;;6154509;23;20170;-71
2021/12/28 13:25:31;;;;;;;42.87;17.77;;;;;;;;;;6164718;23;20240;-68
2021/12/28 13:28:00;;;;;;;34.93;15.30;;;;;;;;;;6155063;23;20216;-66
2021/12/28 13:30:32;;;;;;;32.97;14.03;;;;;;;;;;6155216;23;20189;-66
2021/12/28 13:33:21;;;;;;;32.50;14.60;;;;;;;;;;6155086;23;20189;-68
2021/12/28 13:35:53;;;;;;;24.10;12.87;;;;;;;;;;6154819;23;20170;-68
2021/12/28 13:38:23;;;;;;;27.77;13.23;;;;;;;;;;6162212;23;20177;-70
2021/12/28 13:40:57;;;;;;;43.63;19.77;;;;;;;;;;6153749;23;20209;-70
2021/12/28 13:43:35;;;;;;;118.10;35.37;;;;;;;;;;6116850;23;20244;-70
2021/12/28 13:46:05;;;;;;;31.47;14.93;;;;;;;;;;6165561;23;20612;-68
2021/12/28 13:48:41;;;;;;;30.93;14.97;;;;;;;;;;6155310;23;20632;-68
2021/12/28 13:51:11;;;;;;;33.97;16.50;;;;;;;;;;6154262;23;20173;-69
2021/12/28 13:53:43;;;;;;;50.07;20.00;;;;;;;;;;6155490;23;20636;-65
2021/12/28 13:56:16;;;;;;;38.50;16.17;;;;;;;;;;6157257;23;20172;-69
2021/12/28 13:58:50;;;;;;;30.80;14.80;;;;;;;;;;6153427;23;20203;-69
2021/12/28 14:01:32;;;;;;;32.77;15.57;;;;;;;;;;6165240;23;20671;-69
2021/12/28 14:04:03;;;;;;;35.40;15.57;;;;;;;;;;6156057;23;20177;-66
2021/12/28 14:06:33;;;;;;;56.97;22.17;;;;;;;;;;6165538;23;20225;-68
2021/12/28 14:09:04;;;;;;;29.27;14.13;;;;;;;;;;6154311;23;20211;-71
2021/12/28 14:11:53;;;;;;;38.73;20.10;;;;;;;;;;6106380;23;20172;-70
2021/12/28 14:14:25;;;;;;;34.90;15.97;;;;;;;;;;6153221;23;20902;-69
2021/12/28 14:17:14;;;;;;;39.53;17.93;;;;;;;;;;6163140;23;20693;-69
2021/12/28 14:19:52;;;;;;;56.70;30.67;;;;;;;;;;6153652;23;20193;-70
2021/12/28 14:22:20;;;;;;;136.00;38.60;;;;;;;;;;6154557;23;20220;-66
2021/12/28 14:24:51;;;;;;;103.07;32.40;;;;;;;;;;6154384;23;20185;-67
2021/12/28 14:27:27;;;;;;;77.33;28.30;;;;;;;;;;6158243;23;20219;-68
2021/12/28 14:30:15;;;;;;;97.23;31.90;;;;;;;;;;6163774;23;20193;-69
2021/12/28 14:32:48;;;;;;;88.83;30.30;;;;;;;;;;6151370;23;20180;-65
2021/12/28 14:35:17;;;;;;;98.07;30.20;;;;;;;;;;6154049;23;20170;-68